Time;durP1;ratioP1;P1;durP2;ratioP2;P2;SDS_P1;SDS_P2;PMS_P1;PMS_P2;Temp;Humidity;BMP_temperature;BMP_pressure;BME280_temperature;BME280_humidity;BME280_pressure;Samples;Min_cycle;Max_cycle;Signal;HPM_P1;HPM_P2
2022/04/27 00:02:10;;;;;;;5.90;2.65;;;7.70;71.90;;;;;;4857712;29;20381;-73
2022/04/27 00:04:38;;;;;;;3.78;2.30;;;7.70;72.00;;;;;;4858462;29;20447;-73
2022/04/27 00:07:07;;;;;;;5.38;2.70;;;7.60;72.10;;;;;;4855984;29;20057;-73
2022/04/27 00:09:35;;;;;;;7.22;2.90;;;7.50;72.10;;;;;;4855382;29;20060;-73
2022/04/27 00:12:03;;;;;;;5.20;2.90;;;7.40;72.20;;;;;;4860988;29;20137;-73
2022/04/27 00:14:32;;;;;;;6.72;2.85;;;7.30;72.40;;;;;;4840866;29;20045;-73
2022/04/27 00:17:00;;;;;;;8.95;3.60;;;7.20;72.60;;;;;;4827583;29;20077;-73
2022/04/27 00:19:28;;;;;;;9.15;3.58;;;7.10;72.80;;;;;;4858743;29;20120;-73
2022/04/27 00:21:55;;;;;;;8.65;3.60;;;7.00;73.10;;;;;;4861295;29;20076;-72
2022/04/27 00:24:23;;;;;;;11.20;3.80;;;6.80;73.30;;;;;;4857921;29;20049;-73
2022/04/27 00:26:51;;;;;;;10.75;3.05;;;6.70;73.50;;;;;;4859652;29;20060;-73
2022/04/27 00:29:19;;;;;;;9.02;3.30;;;6.60;73.80;;;;;;4842522;29;20053;-73
2022/04/27 00:31:47;;;;;;;6.20;2.70;;;6.50;74.10;;;;;;4842516;29;20053;-73
2022/04/27 00:34:14;;;;;;;6.40;2.65;;;6.30;74.30;;;;;;4842543;29;20053;-73
2022/04/27 00:36:42;;;;;;;3.78;2.63;;;6.30;74.50;;;;;;4841741;29;20065;-73
2022/04/27 00:39:10;;;;;;;8.95;2.80;;;6.30;74.70;;;;;;4857044;29;20065;-73
2022/04/27 00:41:38;;;;;;;6.80;2.53;;;6.20;74.80;;;;;;4858306;29;20057;-73
2022/04/27 00:44:05;;;;;;;10.50;2.88;;;6.10;75.10;;;;;;4845414;29;20053;-73
2022/04/27 00:46:33;;;;;;;10.55;2.90;;;6.10;75.20;;;;;;4856535;29;20399;-73
2022/04/27 00:49:01;;;;;;;4.40;2.70;;;6.00;75.40;;;;;;4841643;29;20037;-73
2022/04/27 00:51:30;;;;;;;7.93;2.53;;;5.90;75.50;;;;;;4858642;29;20380;-73
2022/04/27 00:54:00;;;;;;;6.93;2.70;;;5.80;75.60;;;;;;4858330;29;20042;-73
2022/04/27 00:56:28;;;;;;;8.00;2.95;;;5.80;75.80;;;;;;4868951;29;20057;-73
2022/04/27 00:58:56;;;;;;;6.53;2.90;;;5.70;75.90;;;;;;4858730;29;20385;-73
2022/04/27 01:01:23;;;;;;;10.73;2.92;;;5.60;76.00;;;;;;4841348;29;20492;-72
2022/04/27 01:03:51;;;;;;;7.72;2.60;;;5.50;76.20;;;;;;4859022;29;20403;-72
2022/04/27 01:06:21;;;;;;;8.18;3.17;;;5.50;76.40;;;;;;4825857;29;20407;-72
2022/04/27 01:08:49;;;;;;;9.15;3.08;;;5.30;76.60;;;;;;4841002;29;20053;-71
2022/04/27 01:11:17;;;;;;;9.32;2.70;;;5.30;76.80;;;;;;4854201;29;20069;-72
2022/04/27 01:13:51;;;;;;;5.20;2.80;;;5.20;76.90;;;;;;4841778;29;20053;-72
2022/04/27 01:16:19;;;;;;;9.13;2.70;;;5.20;77.10;;;;;;4861657;29;20499;-72
2022/04/27 01:18:50;;;;;;;5.07;3.03;;;5.10;77.30;;;;;;4835635;29;20050;-73
2022/04/27 01:21:18;;;;;;;6.22;3.13;;;5.10;77.50;;;;;;4841631;29;20492;-73
2022/04/27 01:23:52;;;;;;;6.15;3.13;;;5.00;77.60;;;;;;4842238;29;20496;-73
2022/04/27 01:26:20;;;;;;;8.13;3.53;;;5.00;77.70;;;;;;4838385;29;20046;-73
2022/04/27 01:28:48;;;;;;;9.82;3.70;;;5.00;77.70;;;;;;4842444;29;20053;-73
2022/04/27 01:31:15;;;;;;;8.98;3.00;;;4.90;77.80;;;;;;4851633;29;20511;-73
2022/04/27 01:33:43;;;;;;;14.27;3.65;;;4.90;77.90;;;;;;4826793;29;20056;-72
2022/04/27 01:36:13;;;;;;;10.70;3.67;;;4.90;78.10;;;;;;4852280;29;20046;-73
2022/04/27 01:38:42;;;;;;;10.80;3.58;;;4.90;78.20;;;;;;4857997;29;20395;-73
2022/04/27 01:41:10;;;;;;;5.78;3.47;;;4.90;78.30;;;;;;4856458;29;20053;-73
2022/04/27 01:43:38;;;;;;;5.10;3.40;;;5.00;78.30;;;;;;4852607;29;20048;-73
2022/04/27 01:46:07;;;;;;;9.73;3.72;;;5.00;78.30;;;;;;4851211;29;20054;-72
2022/04/27 01:48:35;;;;;;;8.70;3.53;;;5.00;78.20;;;;;;4842126;29;20053;-72
2022/04/27 01:51:03;;;;;;;10.82;3.35;;;5.10;78.20;;;;;;4860125;29;20061;-73
2022/04/27 01:56:20;;;;;;;11.52;3.95;;;5.10;78.30;;;;;;4865152;29;20056;-72
2022/04/27 01:58:51;;;;;;;8.43;3.80;;;5.10;78.30;;;;;;4857916;29;20483;-73
2022/04/27 02:01:21;;;;;;;6.78;3.85;;;5.10;78.30;;;;;;4839269;29;20038;-73
2022/04/27 02:03:51;;;;;;;7.60;3.65;;;5.20;78.30;;;;;;4857033;29;20046;-73
2022/04/27 02:06:20;;;;;;;11.63;3.70;;;5.20;78.40;;;;;;4844806;29;20054;-73
2022/04/27 02:08:49;;;;;;;8.52;3.80;;;5.30;78.40;;;;;;4844463;29;20057;-73
2022/04/27 02:11:24;;;;;;;14.95;4.20;;;5.30;78.40;;;;;;4856670;29;20380;-73
2022/04/27 02:14:06;;;;;;;14.60;4.28;;;5.30;78.30;;;;;;4850814;29;20046;-73
2022/04/27 02:16:37;;;;;;;11.50;4.07;;;5.30;78.40;;;;;;4862382;29;20060;-72
2022/04/27 02:19:10;;;;;;;10.65;4.10;;;5.20;78.50;;;;;;4845092;29;20399;-72
2022/04/27 02:21:39;;;;;;;7.95;4.50;;;5.20;78.60;;;;;;4828728;29;20061;-72
2022/04/27 02:24:06;;;;;;;11.48;4.28;;;5.20;78.70;;;;;;4844403;29;20054;-72
2022/04/27 02:26:34;;;;;;;10.57;4.22;;;5.10;78.80;;;;;;4841871;29;20060;-73
2022/04/27 02:29:02;;;;;;;8.60;5.00;;;5.10;78.90;;;;;;4839239;29;20054;-72
2022/04/27 02:31:31;;;;;;;11.50;4.90;;;5.10;79.00;;;;;;4840978;29;20049;-72
2022/04/27 02:33:59;;;;;;;9.73;4.82;;;5.10;79.10;;;;;;4840812;29;20416;-72
2022/04/27 02:36:27;;;;;;;9.07;4.95;;;5.10;79.10;;;;;;4850735;29;20056;-73
2022/04/27 02:38:55;;;;;;;9.63;5.30;;;5.10;79.10;;;;;;4845159;29;20053;-72
2022/04/27 02:41:22;;;;;;;10.32;5.20;;;5.10;79.20;;;;;;4859058;29;20412;-73
2022/04/27 02:43:50;;;;;;;11.85;5.40;;;5.10;79.20;;;;;;4844942;29;20049;-72
2022/04/27 02:46:20;;;;;;;10.70;4.75;;;5.20;79.20;;;;;;4844799;29;20045;-72
2022/04/27 02:51:51;;;;;;;11.70;5.30;;;5.10;79.20;;;;;;4858672;29;20049;-72
2022/04/27 02:54:42;;;;;;;8.95;5.18;;;5.10;79.10;;;;;;4853039;29;20076;-72
2022/04/27 02:57:11;;;;;;;10.80;5.18;;;5.10;79.10;;;;;;4855461;29;20053;-72
2022/04/27 02:59:38;;;;;;;10.50;5.70;;;5.00;79.20;;;;;;4859320;29;20723;-72
2022/04/27 03:02:06;;;;;;;11.73;5.38;;;4.80;79.30;;;;;;4845476;29;20061;-72
2022/04/27 03:04:34;;;;;;;15.10;6.15;;;4.80;79.50;;;;;;4858354;29;20053;-72
2022/04/27 03:07:03;;;;;;;14.90;5.63;;;4.60;79.60;;;;;;4872362;29;20049;-72
2022/04/27 03:09:36;;;;;;;20.35;6.50;;;4.50;79.90;;;;;;4869374;29;20060;-72
2022/04/27 03:12:04;;;;;;;12.07;6.30;;;4.30;80.10;;;;;;4843260;29;20534;-72
2022/04/27 03:14:37;;;;;;;14.43;6.35;;;4.20;80.20;;;;;;4857974;29;20058;-72
2022/04/27 03:17:05;;;;;;;10.02;6.55;;;4.20;80.40;;;;;;4858069;29;20065;-72
2022/04/27 03:19:33;;;;;;;14.52;6.25;;;4.00;80.60;;;;;;4844464;29;20053;-72
2022/04/27 03:22:01;;;;;;;19.20;7.32;;;3.90;80.80;;;;;;4858734;29;20053;-72
2022/04/27 03:24:29;;;;;;;15.18;7.43;;;3.90;81.00;;;;;;4843474;29;20059;-72
2022/04/27 03:27:08;;;;;;;14.82;7.03;;;3.80;81.10;;;;;;4827384;29;20065;-71
2022/04/27 03:29:36;;;;;;;21.48;8.45;;;3.80;81.30;;;;;;4859184;29;20045;-72
2022/04/27 03:32:04;;;;;;;20.23;8.82;;;3.70;81.50;;;;;;4866877;29;20052;-72
2022/04/27 03:34:32;;;;;;;26.70;10.15;;;3.80;81.80;;;;;;4843333;29;20057;-72
2022/04/27 03:37:00;;;;;;;25.38;9.93;;;3.80;81.80;;;;;;4827769;29;20068;-72
2022/04/27 03:39:28;;;;;;;26.83;10.45;;;3.80;81.90;;;;;;4843080;29;20492;-72
2022/04/27 03:42:14;;;;;;;22.95;9.40;;;3.80;82.00;;;;;;4858110;29;20049;-72
2022/04/27 03:44:45;;;;;;;21.20;9.50;;;3.90;82.00;;;;;;4841247;29;20563;-72
2022/04/27 03:47:13;;;;;;;23.10;9.55;;;4.00;82.00;;;;;;4856472;29;20049;-71
2022/04/27 03:49:41;;;;;;;23.20;9.82;;;4.00;82.00;;;;;;4850516;29;20388;-72
2022/04/27 03:52:09;;;;;;;27.45;10.05;;;4.00;82.10;;;;;;4858552;29;20054;-72
2022/04/27 03:54:37;;;;;;;28.17;10.57;;;4.00;82.20;;;;;;4857675;29;20057;-72
2022/04/27 03:57:06;;;;;;;26.33;9.50;;;4.00;82.20;;;;;;4842303;29;20049;-72
2022/04/27 03:59:34;;;;;;;22.77;9.70;;;4.20;82.30;;;;;;4846835;29;20042;-72
2022/04/27 04:02:02;;;;;;;23.95;9.30;;;4.20;82.40;;;;;;4862390;29;20046;-73
2022/04/27 04:04:30;;;;;;;19.52;9.20;;;4.20;82.40;;;;;;4841160;29;20056;-72
2022/04/27 04:06:58;;;;;;;23.90;9.52;;;4.30;82.40;;;;;;4841976;29;20053;-72
2022/04/27 04:09:29;;;;;;;23.38;9.93;;;4.30;82.30;;;;;;4842516;29;20052;-72
2022/04/27 04:11:57;;;;;;;19.25;9.15;;;4.30;82.40;;;;;;4841592;29;20055;-72
2022/04/27 04:14:48;;;;;;;21.65;9.30;;;4.30;82.40;;;;;;4852414;29;20069;-72
2022/04/27 04:17:29;;;;;;;30.92;10.18;;;4.40;82.40;;;;;;4838788;29;20057;-72
2022/04/27 04:20:14;;;;;;;;;;;4.50;82.40;;;;;;4841361;29;20045;-72
2022/04/27 04:22:50;;;;;;;25.95;10.00;;;4.50;82.40;;;;;;4840746;29;19932;-72
2022/04/27 04:28:30;;;;;;;11.73;7.47;;;4.50;82.10;;;;;;4856715;29;20066;-72
2022/04/27 04:31:00;;;;;;;14.65;7.18;;;4.50;82.20;;;;;;4839684;29;20064;-72
2022/04/27 04:33:47;;;;;;;17.95;8.32;;;4.50;82.30;;;;;;4845381;29;20401;-72
2022/04/27 04:36:16;;;;;;;16.50;6.85;;;4.50;82.40;;;;;;4841833;29;20041;-73
2022/04/27 04:38:44;;;;;;;17.60;6.88;;;4.50;82.40;;;;;;4870038;29;20049;-73
2022/04/27 04:41:21;;;;;;;13.07;7.13;;;4.60;82.40;;;;;;4847554;29;20075;-72
2022/04/27 04:43:53;;;;;;;14.45;7.55;;;4.60;82.30;;;;;;4842279;29;20064;-73
2022/04/27 04:46:22;;;;;;;16.40;7.28;;;4.60;82.40;;;;;;4843469;29;20045;-72
2022/04/27 04:48:50;;;;;;;12.10;7.18;;;4.60;82.40;;;;;;4855065;29;20411;-72
2022/04/27 04:51:36;;;;;;;12.10;6.88;;;4.60;82.40;;;;;;4860289;29;20049;-72
2022/04/27 04:54:22;;;;;;;12.88;7.07;;;4.70;82.40;;;;;;4857322;29;20037;-72
2022/04/27 04:56:55;;;;;;;16.58;8.27;;;4.60;82.40;;;;;;4858574;29;20420;-72
2022/04/27 04:59:46;;;;;;;22.38;8.73;;;4.70;82.40;;;;;;4849790;29;20060;-73
2022/04/27 05:02:22;;;;;;;23.05;8.80;;;4.70;82.40;;;;;;4850991;29;20050;-73
2022/04/27 05:04:56;;;;;;;26.52;9.65;;;4.70;82.50;;;;;;4853352;29;20061;-73
2022/04/27 05:07:40;;;;;;;22.98;8.65;;;4.60;82.50;;;;;;4841860;29;20046;-73
2022/04/27 05:10:27;;;;;;;22.05;9.63;;;4.60;82.60;;;;;;4850120;29;20061;-72
2022/04/27 05:13:09;;;;;;;22.27;9.15;;;4.50;82.70;;;;;;4856144;29;20046;-73
2022/04/27 05:16:12;;;;;;;13.10;6.13;;;4.50;82.80;;;;;;4852970;29;20065;-73
2022/04/27 05:18:59;;;;;;;18.58;8.40;;;4.60;82.90;;;;;;4841892;29;20063;-72
2022/04/27 05:21:56;;;;;;;21.17;8.75;;;4.60;83.00;;;;;;4841856;29;20058;-72
2022/04/27 05:24:44;;;;;;;21.77;8.30;;;4.60;83.00;;;;;;4835372;29;20053;-72
2022/04/27 05:27:29;;;;;;;18.02;8.48;;;4.70;83.00;;;;;;4841112;29;20061;-73
2022/04/27 05:33:23;;;;;;;21.83;7.93;;;4.70;83.00;;;;;;4859278;29;20424;-73
2022/04/27 05:36:13;;;;;;;23.08;8.82;;;4.80;82.90;;;;;;4850947;29;20061;-73
2022/04/27 05:39:03;;;;;;;20.92;8.50;;;4.90;82.80;;;;;;4855362;29;20053;-72
2022/04/27 05:41:45;;;;;;;19.65;8.23;;;5.00;82.70;;;;;;4866601;29;20049;-73
2022/04/27 05:44:31;;;;;;;24.08;8.10;;;5.10;82.60;;;;;;4854180;29;20042;-72
2022/04/27 05:47:32;;;;;;;20.30;7.85;;;5.10;82.50;;;;;;4846161;29;20060;-73
2022/04/27 05:50:00;;;;;;;19.75;8.25;;;5.20;82.40;;;;;;4852028;29;20042;-73
2022/04/27 05:52:49;;;;;;;19.73;7.50;;;5.20;82.40;;;;;;4843188;29;20057;-73
2022/04/27 05:55:46;;;;;;;14.27;7.07;;;5.30;82.30;;;;;;4753615;30;20060;-73
2022/04/27 05:58:37;;;;;;;14.65;6.18;;;5.30;82.20;;;;;;4766472;30;20048;-73
2022/04/27 06:01:25;;;;;;;13.75;5.80;;;5.40;82.00;;;;;;4767254;30;20517;-72
2022/04/27 06:04:08;;;;;;;13.45;6.38;;;5.60;81.90;;;;;;4767159;30;20047;-72
2022/04/27 06:06:45;;;;;;;17.55;6.40;;;5.60;81.60;;;;;;4769309;30;20064;-71
2022/04/27 06:09:16;;;;;;;12.23;6.00;;;5.70;81.40;;;;;;4764438;30;20395;-71
2022/04/27 06:11:57;;;;;;;9.13;5.63;;;5.80;81.20;;;;;;4746977;30;20051;-72
2022/04/27 06:14:42;;;;;;;11.98;5.63;;;5.90;81.00;;;;;;4769576;30;20062;-72
2022/04/27 06:17:17;;;;;;;11.02;5.35;;;6.00;80.80;;;;;;4750212;30;20148;-72
2022/04/27 06:19:46;;;;;;;10.98;3.88;;;6.10;80.60;;;;;;4746389;30;20064;-72
2022/04/27 06:22:15;;;;;;;15.63;4.10;;;6.20;80.30;;;;;;4773626;30;20530;-73
2022/04/27 06:24:43;;;;;;;15.27;4.50;;;6.30;79.90;;;;;;4761275;30;20060;-73
2022/04/27 06:27:29;;;;;;;8.25;3.72;;;6.30;79.50;;;;;;4768864;30;20458;-73
2022/04/27 06:29:58;;;;;;;8.20;3.50;;;6.50;79.20;;;;;;4754156;30;20051;-73
2022/04/27 06:32:29;;;;;;;15.27;3.50;;;6.50;78.90;;;;;;4801169;29;20058;-72
2022/04/27 06:35:00;;;;;;;12.10;3.08;;;6.60;78.50;;;;;;4853994;29;20046;-73
2022/04/27 06:37:29;;;;;;;15.57;3.20;;;6.70;78.10;;;;;;4859022;29;20381;-73
2022/04/27 06:39:57;;;;;;;12.70;3.72;;;6.80;77.60;;;;;;4842098;29;20366;-72
2022/04/27 06:42:25;;;;;;;7.88;3.20;;;6.90;77.30;;;;;;4861250;29;20049;-72
2022/04/27 06:45:27;;;;;;;4.75;2.42;;;7.10;76.90;;;;;;4784994;29;20063;-72
2022/04/27 06:48:14;;;;;;;10.88;2.40;;;7.20;76.00;;;;;;4784384;30;20055;-72
2022/04/27 06:51:00;;;;;;;9.30;2.60;;;7.30;75.40;;;;;;4791905;29;20054;-74
2022/04/27 06:53:47;;;;;;;8.07;2.58;;;7.30;74.80;;;;;;4783442;29;20066;-73
2022/04/27 06:56:34;;;;;;;8.35;2.35;;;7.30;74.20;;;;;;4788672;29;20421;-72
2022/04/27 06:59:20;;;;;;;14.45;3.05;;;7.30;73.90;;;;;;4788125;29;20047;-73
2022/04/27 07:01:54;;;;;;;10.13;2.33;;;7.30;73.30;;;;;;4779958;29;20055;-73
2022/04/27 07:04:22;;;;;;;17.02;3.47;;;7.30;72.90;;;;;;4794206;29;20061;-73
2022/04/27 07:06:50;;;;;;;10.27;3.20;;;7.30;72.50;;;;;;4774232;29;20058;-72
2022/04/27 07:09:18;;;;;;;14.13;2.80;;;7.40;72.20;;;;;;4784471;29;20134;-72
2022/04/27 07:11:46;;;;;;;9.05;2.35;;;7.50;71.60;;;;;;4779697;29;20150;-73
2022/04/27 07:14:16;;;;;;;9.10;2.72;;;7.60;71.00;;;;;;4771545;30;20595;-73
2022/04/27 07:16:44;;;;;;;13.13;2.75;;;7.70;69.90;;;;;;4787989;29;20536;-73
2022/04/27 07:19:12;;;;;;;13.27;3.08;;;7.80;69.30;;;;;;4791494;29;20051;-72
2022/04/27 07:21:40;;;;;;;12.40;2.50;;;7.90;69.00;;;;;;4813234;29;20046;-73
2022/04/27 07:24:08;;;;;;;8.73;2.53;;;8.00;68.60;;;;;;4860172;29;20052;-73
2022/04/27 07:26:36;;;;;;;6.40;2.20;;;8.10;68.30;;;;;;4858096;29;20065;-74
2022/04/27 07:29:05;;;;;;;6.03;2.25;;;8.10;67.70;;;;;;4857143;29;20400;-74
2022/04/27 07:31:32;;;;;;;12.63;2.40;;;8.30;67.50;;;;;;4842430;29;20407;-74
2022/04/27 07:34:00;;;;;;;7.80;2.30;;;8.30;67.00;;;;;;4854900;29;20060;-74
2022/04/27 07:36:28;;;;;;;7.15;2.30;;;8.40;66.50;;;;;;4857669;29;20415;-73
2022/04/27 07:38:57;;;;;;;8.38;2.40;;;8.40;66.10;;;;;;4851068;29;20496;-73
2022/04/27 07:41:25;;;;;;;10.48;2.20;;;8.50;65.80;;;;;;4857066;29;20054;-72
2022/04/27 07:43:53;;;;;;;7.30;1.50;;;8.60;65.30;;;;;;4843526;29;20522;-72
2022/04/27 07:46:20;;;;;;;10.35;2.00;;;8.70;64.70;;;;;;4855364;29;20042;-72
2022/04/27 07:48:51;;;;;;;12.00;2.20;;;8.80;64.10;;;;;;4858396;29;20053;-73
2022/04/27 07:51:19;;;;;;;11.95;1.80;;;8.90;63.60;;;;;;4836662;29;20393;-73
2022/04/27 07:53:47;;;;;;;8.13;1.63;;;8.90;63.20;;;;;;4852377;29;20053;-73
2022/04/27 07:56:15;;;;;;;7.93;1.90;;;9.00;61.70;;;;;;4842979;29;20511;-73
2022/04/27 07:58:43;;;;;;;10.48;1.75;;;9.00;61.40;;;;;;4856427;29;20057;-72
2022/04/27 08:01:11;;;;;;;9.52;1.80;;;9.00;61.40;;;;;;4842222;29;20053;-72
2022/04/27 08:03:38;;;;;;;7.07;1.90;;;9.00;61.50;;;;;;4844297;29;20484;-73
2022/04/27 08:06:06;;;;;;;7.72;1.95;;;9.10;61.30;;;;;;4840902;29;20038;-72
2022/04/27 08:08:35;;;;;;;9.15;1.60;;;9.00;61.30;;;;;;4843910;29;20045;-73
2022/04/27 08:11:02;;;;;;;6.63;2.00;;;9.10;61.30;;;;;;4840058;29;20045;-74
2022/04/27 08:13:32;;;;;;;11.77;2.17;;;9.10;60.90;;;;;;4843174;29;20116;-74
2022/04/27 08:15:59;;;;;;;10.98;2.17;;;9.20;60.70;;;;;;4848492;29;20057;-73
2022/04/27 08:18:27;;;;;;;9.63;2.00;;;9.20;60.70;;;;;;4841689;29;20089;-74
2022/04/27 08:23:47;;;;;;;6.38;1.90;;;9.40;60.00;;;;;;4842451;29;20054;-74
2022/04/27 08:26:15;;;;;;;;;;;9.60;59.50;;;;;;4858297;29;20045;-74
2022/04/27 08:28:43;;;;;;;7.50;2.10;;;9.70;58.70;;;;;;4842831;29;19925;-74
2022/04/27 08:31:14;;;;;;;8.52;2.05;;;9.80;58.60;;;;;;4859598;29;20062;-74
2022/04/27 08:33:42;;;;;;;13.00;2.13;;;9.80;58.30;;;;;;4859894;29;20057;-74
2022/04/27 08:36:10;;;;;;;11.68;1.95;;;9.80;58.20;;;;;;4858179;29;20411;-73
2022/04/27 08:38:59;;;;;;;6.60;1.70;;;9.80;57.90;;;;;;4825034;29;20049;-74
2022/04/27 08:41:28;;;;;;;5.45;1.77;;;9.80;57.10;;;;;;4840030;29;20061;-74
2022/04/27 08:43:56;;;;;;;10.25;2.08;;;9.80;56.90;;;;;;4858307;29;20057;-74
2022/04/27 08:46:26;;;;;;;4.18;1.80;;;9.90;56.90;;;;;;4845520;29;20054;-74
2022/04/27 08:48:54;;;;;;;7.53;2.45;;;10.10;56.40;;;;;;4842598;29;20526;-74
2022/04/27 08:51:22;;;;;;;8.65;1.98;;;10.30;56.40;;;;;;4845744;29;20493;-74
2022/04/27 08:53:49;;;;;;;4.82;1.83;;;10.40;56.10;;;;;;4841168;29;20057;-74
2022/04/27 08:56:17;;;;;;;6.63;2.20;;;10.60;55.80;;;;;;4841727;29;20053;-71
2022/04/27 08:58:45;;;;;;;6.53;2.05;;;10.80;55.10;;;;;;4841598;29;20050;-72
2022/04/27 09:01:12;;;;;;;7.63;2.00;;;11.00;54.50;;;;;;4841163;29;20053;-72
2022/04/27 09:03:42;;;;;;;3.78;1.80;;;11.10;54.10;;;;;;4851709;29;20558;-73
2022/04/27 09:06:12;;;;;;;9.85;1.80;;;11.20;53.30;;;;;;4861847;29;20053;-73
2022/04/27 09:08:45;;;;;;;11.25;2.13;;;11.30;52.90;;;;;;4845262;29;20492;-73
2022/04/27 09:11:15;;;;;;;10.35;2.03;;;11.40;52.20;;;;;;4862910;29;20062;-73
2022/04/27 09:13:51;;;;;;;11.63;2.42;;;11.50;52.10;;;;;;4846467;29;20049;-73
2022/04/27 09:16:21;;;;;;;5.85;1.80;;;11.60;51.90;;;;;;4862507;29;20049;-73
2022/04/27 09:22:08;;;;;;;11.10;2.20;;;11.70;50.70;;;;;;4862644;29;20052;-72
2022/04/27 09:24:55;;;;;;;6.72;1.90;;;11.60;50.60;;;;;;4845948;29;20072;-73
2022/04/27 09:27:24;;;;;;;8.05;2.33;;;11.70;51.20;;;;;;4862335;29;20053;-73
2022/04/27 09:30:00;;;;;;;8.00;1.80;;;11.70;51.30;;;;;;4862497;29;20045;-73
2022/04/27 09:32:28;;;;;;;6.35;1.95;;;11.70;50.90;;;;;;4862822;29;20499;-73
2022/04/27 09:35:00;;;;;;;8.75;2.17;;;11.80;50.50;;;;;;4850116;29;20049;-73
2022/04/27 09:37:30;;;;;;;7.80;2.13;;;11.80;50.40;;;;;;4862635;29;20052;-73
2022/04/27 09:40:07;;;;;;;15.63;2.72;;;11.80;50.50;;;;;;4862504;29;20159;-73
2022/04/27 09:42:44;;;;;;;7.63;2.45;;;11.80;50.10;;;;;;4862449;29;20411;-73
2022/04/27 09:45:20;;;;;;;10.20;2.35;;;11.80;50.50;;;;;;4861082;29;20049;-73
2022/04/27 09:48:03;;;;;;;9.10;2.40;;;11.80;50.30;;;;;;4861594;29;20049;-72
2022/04/27 09:50:52;;;;;;;;;;;11.80;50.20;;;;;;4862201;29;20507;-73
2022/04/27 09:53:20;;;;;;;13.85;3.10;;;11.90;49.80;;;;;;4862548;29;19924;-72
2022/04/27 09:55:52;;;;;;;9.57;2.33;;;11.90;49.60;;;;;;4860700;29;20060;-73
2022/04/27 09:58:19;;;;;;;10.35;2.50;;;12.00;49.60;;;;;;4862762;29;20046;-72
2022/04/27 10:00:50;;;;;;;4.93;2.47;;;12.00;49.50;;;;;;4864859;29;20052;-73
2022/04/27 10:03:19;;;;;;;10.65;2.30;;;12.10;49.70;;;;;;4862386;29;20407;-73
2022/04/27 10:05:47;;;;;;;7.80;2.35;;;12.20;49.20;;;;;;4861840;29;20037;-73
2022/04/27 10:08:15;;;;;;;14.18;2.28;;;12.20;48.20;;;;;;4845288;29;20058;-73
2022/04/27 10:10:45;;;;;;;6.55;2.08;;;12.20;48.30;;;;;;4861219;29;20500;-73
2022/04/27 10:13:15;;;;;;;11.18;2.65;;;12.20;48.70;;;;;;4861361;29;20408;-73
2022/04/27 10:15:44;;;;;;;9.57;2.63;;;12.30;48.60;;;;;;4844597;29;20050;-72
2022/04/27 10:18:18;;;;;;;9.18;2.60;;;12.40;48.00;;;;;;4832978;29;20056;-73
2022/04/27 10:20:49;;;;;;;11.30;2.50;;;12.40;47.80;;;;;;4861457;29;20057;-72
2022/04/27 10:23:33;;;;;;;9.52;2.95;;;12.50;47.60;;;;;;4861602;29;20054;-72
2022/04/27 10:26:20;;;;;;;9.98;2.58;;;12.50;47.60;;;;;;4862068;29;20046;-72
2022/04/27 10:28:56;;;;;;;8.52;2.75;;;12.60;47.20;;;;;;4861947;29;20464;-72
2022/04/27 10:31:48;;;;;;;7.07;2.22;;;12.60;46.90;;;;;;4859952;29;20061;-73
2022/04/27 10:34:20;;;;;;;11.27;2.63;;;12.70;47.20;;;;;;4861862;29;20060;-73
2022/04/27 10:36:49;;;;;;;9.60;2.50;;;12.70;46.80;;;;;;4861803;29;20053;-73
2022/04/27 10:39:19;;;;;;;10.73;2.45;;;12.80;46.60;;;;;;4861637;29;20057;-73
2022/04/27 10:41:53;;;;;;;13.35;2.63;;;12.80;46.70;;;;;;4861595;29;20054;-73
2022/04/27 10:44:41;;;;;;;6.78;2.50;;;12.90;46.60;;;;;;4859610;29;20097;-73
2022/04/27 10:47:18;;;;;;;5.22;2.35;;;13.00;46.30;;;;;;4861494;29;20056;-73
2022/04/27 10:49:47;;;;;;;9.73;4.07;;;13.20;45.60;;;;;;4843747;29;20052;-73
2022/04/27 10:52:15;;;;;;;13.75;6.00;;;13.20;45.50;;;;;;4838075;29;20061;-75
2022/04/27 10:54:43;;;;;;;27.55;13.80;;;13.10;45.00;;;;;;4844336;29;20529;-74
2022/04/27 10:57:16;;;;;;;7.05;2.58;;;13.10;45.20;;;;;;4848938;29;20050;-73
2022/04/27 10:59:49;;;;;;;10.50;2.53;;;13.10;45.00;;;;;;4849113;29;20054;-74
2022/04/27 11:02:43;;;;;;;7.28;2.42;;;13.10;45.00;;;;;;4854230;29;20050;-72
2022/04/27 11:05:11;;;;;;;7.32;2.42;;;13.00;45.10;;;;;;4847096;29;20054;-73
2022/04/27 11:07:41;;;;;;;6.75;2.42;;;13.10;45.10;;;;;;4847824;29;20511;-72
2022/04/27 11:10:28;;;;;;;10.73;2.80;;;13.20;44.80;;;;;;4844457;29;20061;-73
2022/04/27 11:12:56;;;;;;;8.73;2.42;;;13.40;44.60;;;;;;4857388;29;20046;-72
2022/04/27 11:15:26;;;;;;;9.38;2.58;;;13.80;44.40;;;;;;4843296;29;20094;-73
2022/04/27 11:18:01;;;;;;;8.27;2.75;;;14.10;43.40;;;;;;4848830;29;20395;-73
2022/04/27 11:20:36;;;;;;;9.68;2.60;;;14.30;43.20;;;;;;4844369;29;20061;-73
2022/04/27 11:23:08;;;;;;;6.13;2.60;;;14.50;43.30;;;;;;4853141;29;20046;-73
2022/04/27 11:25:39;;;;;;;12.02;2.95;;;14.70;42.00;;;;;;4851144;29;20388;-73
2022/04/27 11:28:07;;;;;;;11.52;2.85;;;14.70;41.50;;;;;;4856549;29;20064;-74
2022/04/27 11:30:35;;;;;;;8.50;2.70;;;14.60;41.30;;;;;;4852328;29;20531;-73
2022/04/27 11:33:03;;;;;;;8.02;2.60;;;14.40;41.80;;;;;;4857841;29;20075;-73
2022/04/27 11:35:45;;;;;;;7.88;2.70;;;14.20;42.10;;;;;;4860571;29;20057;-73
2022/04/27 11:38:21;;;;;;;8.10;2.58;;;14.00;42.20;;;;;;4860900;29;20045;-73
2022/04/27 11:40:49;;;;;;;8.07;2.50;;;14.00;42.60;;;;;;4860711;29;20504;-73
2022/04/27 11:43:32;;;;;;;10.77;2.92;;;14.30;41.70;;;;;;4859807;29;20496;-73
2022/04/27 11:45:59;;;;;;;4.95;2.42;;;14.60;41.60;;;;;;4860701;29;20057;-73
2022/04/27 11:48:30;;;;;;;11.15;2.28;;;14.90;40.90;;;;;;4860303;29;20049;-73
2022/04/27 11:51:00;;;;;;;11.10;2.78;;;15.00;40.70;;;;;;4860672;29;20064;-73
2022/04/27 11:53:28;;;;;;;8.10;2.55;;;14.90;40.80;;;;;;4859759;29;20057;-73
2022/04/27 11:55:58;;;;;;;12.23;2.67;;;15.10;41.00;;;;;;4863703;29;20396;-73
2022/04/27 11:58:28;;;;;;;7.47;2.20;;;15.30;41.00;;;;;;4861810;29;20072;-72
2022/04/27 12:01:00;;;;;;;6.55;2.25;;;15.80;40.50;;;;;;4860321;29;20049;-73
2022/04/27 12:03:32;;;;;;;8.50;2.17;;;16.00;38.30;;;;;;4854996;29;20090;-73
2022/04/27 12:06:00;;;;;;;9.20;2.40;;;16.00;39.00;;;;;;4853884;29;20053;-73
2022/04/27 12:08:28;;;;;;;7.30;2.30;;;16.20;39.20;;;;;;4859867;29;20057;-75
2022/04/27 12:10:56;;;;;;;8.75;2.25;;;16.30;38.70;;;;;;4843556;29;20058;-74
2022/04/27 12:13:24;;;;;;;6.45;1.90;;;16.10;38.30;;;;;;4841780;29;20073;-73
2022/04/27 12:15:54;;;;;;;9.80;2.03;;;15.80;38.40;;;;;;4824793;29;20061;-73
2022/04/27 12:18:25;;;;;;;7.97;2.10;;;15.60;39.00;;;;;;4844349;29;20045;-72
2022/04/27 12:20:57;;;;;;;6.25;2.00;;;15.50;39.20;;;;;;4848771;29;20072;-73
2022/04/27 12:23:35;;;;;;;10.18;2.30;;;15.80;39.70;;;;;;4841932;29;20065;-73
2022/04/27 12:26:04;;;;;;;5.25;1.83;;;16.30;38.90;;;;;;4848597;29;20049;-74
2022/04/27 12:28:40;;;;;;;7.00;1.77;;;16.60;37.80;;;;;;4856497;29;20054;-74
2022/04/27 12:31:09;;;;;;;9.13;2.13;;;16.70;37.40;;;;;;4860003;29;20061;-74
2022/04/27 12:33:43;;;;;;;8.13;2.05;;;16.40;37.30;;;;;;4857734;29;20508;-74
2022/04/27 12:39:10;;;;;;;6.82;1.85;;;15.70;38.20;;;;;;4859272;29;20369;-74
2022/04/27 12:41:45;;;;;;;8.40;1.80;;;15.40;38.60;;;;;;4843290;29;20053;-73
2022/04/27 12:44:36;;;;;;;7.03;2.10;;;15.70;38.70;;;;;;4859636;29;20524;-74
2022/04/27 12:47:08;;;;;;;9.10;2.35;;;15.60;38.40;;;;;;4856409;29;20055;-73
2022/04/27 12:49:41;;;;;;;8.05;2.03;;;15.30;38.70;;;;;;4851889;29;20053;-73
2022/04/27 12:52:19;;;;;;;9.40;2.15;;;15.70;39.70;;;;;;4859679;29;20045;-73
2022/04/27 12:54:50;;;;;;;7.18;2.10;;;16.70;38.90;;;;;;4841240;29;20054;-74
2022/04/27 12:57:17;;;;;;;7.45;2.38;;;17.70;38.30;;;;;;4841332;29;20504;-74
2022/04/27 13:00:00;;;;;;;9.00;2.35;;;18.60;36.90;;;;;;4854046;29;20049;-73
2022/04/27 13:02:29;;;;;;;5.63;2.25;;;18.90;34.70;;;;;;4859336;29;20057;-73
2022/04/27 13:04:57;;;;;;;11.30;2.50;;;18.60;34.20;;;;;;4855715;29;20061;-74
2022/04/27 13:07:25;;;;;;;6.45;2.50;;;18.00;34.90;;;;;;4859426;29;20057;-73
2022/04/27 13:12:39;;;;;;;6.70;2.45;;;17.10;35.60;;;;;;4842548;29;20397;-74
2022/04/27 13:15:07;;;;;;;10.30;2.80;;;16.70;36.10;;;;;;4841192;29;20054;-74
2022/04/27 13:17:36;;;;;;;11.55;2.90;;;16.10;36.70;;;;;;4839930;29;20050;-74
2022/04/27 13:20:05;;;;;;;10.15;2.60;;;15.60;37.50;;;;;;4840084;29;20515;-74
2022/04/27 13:22:32;;;;;;;5.72;2.40;;;15.50;38.10;;;;;;4841201;29;20050;-74
2022/04/27 13:25:00;;;;;;;6.70;2.47;;;16.00;38.20;;;;;;4856641;29;20049;-74
2022/04/27 13:27:28;;;;;;;13.52;2.72;;;16.60;37.60;;;;;;4848211;29;20046;-73
2022/04/27 13:29:56;;;;;;;7.65;2.55;;;17.30;37.00;;;;;;4859268;29;20064;-73
2022/04/27 13:32:24;;;;;;;9.48;2.58;;;17.70;36.40;;;;;;4846874;29;20408;-72
2022/04/27 13:34:52;;;;;;;8.80;2.40;;;18.00;35.30;;;;;;4839827;29;20046;-72
2022/04/27 13:37:24;;;;;;;7.97;2.35;;;18.70;34.80;;;;;;4850272;29;20049;-72
2022/04/27 13:39:57;;;;;;;11.07;2.97;;;19.40;33.80;;;;;;4855230;29;20408;-73